createdAt,value
2022-08-04T00:01:40.879Z,26.67
2022-08-04T00:04:32.554Z,26.67
2022-08-04T00:06:59.644Z,26.69
2022-08-04T00:09:35.735Z,26.68
2022-08-04T00:12:07.471Z,26.67
2022-08-04T00:14:41.497Z,26.61
2022-08-04T00:17:09.669Z,26.64
2022-08-04T00:19:47.372Z,26.61
2022-08-04T00:22:22.838Z,26.59
2022-08-04T00:24:50.162Z,26.54
2022-08-04T00:27:17.431Z,26.56
2022-08-04T00:29:47.385Z,26.49
2022-08-04T00:32:33.831Z,26.50
2022-08-04T00:35:03.115Z,26.20
2022-08-04T00:37:32.849Z,26.46
2022-08-04T00:40:09.517Z,26.46
2022-08-04T00:43:02.700Z,26.43
2022-08-04T00:46:15.872Z,26.41
2022-08-04T00:49:16.253Z,26.37
2022-08-04T00:52:31.715Z,26.36
2022-08-04T00:55:22.452Z,26.35
2022-08-04T00:58:44.791Z,26.33
2022-08-04T01:01:44.196Z,26.30
2022-08-04T01:04:41.147Z,26.28
2022-08-04T01:07:08.345Z,26.28
2022-08-04T01:10:04.003Z,26.28
2022-08-04T01:13:07.880Z,26.24
2022-08-04T01:16:05.230Z,26.20
2022-08-04T01:18:50.393Z,26.16
2022-08-04T01:21:30.502Z,26.12
2022-08-04T01:24:53.187Z,26.06
2022-08-04T01:27:54.969Z,26.04
2022-08-04T01:30:27.394Z,26.01
2022-08-04T01:33:09.333Z,26.01
2022-08-04T01:35:50.940Z,26.00
2022-08-04T01:38:37.422Z,25.93
2022-08-04T01:41:14.641Z,25.97
2022-08-04T01:43:44.832Z,25.96
2022-08-04T01:46:16.006Z,25.96
2022-08-04T01:48:47.787Z,25.93
2022-08-04T01:51:15.265Z,25.95
2022-08-04T01:53:44.695Z,25.94
2022-08-04T01:56:13.236Z,25.93
2022-08-04T01:58:41.645Z,25.93
2022-08-04T02:01:13.075Z,25.91
2022-08-04T02:04:19.398Z,25.89
2022-08-04T02:06:58.990Z,25.87
2022-08-04T02:09:54.261Z,25.81
2022-08-04T02:12:41.031Z,25.77
2022-08-04T02:15:57.601Z,25.75
2022-08-04T02:19:15.318Z,25.65
2022-08-04T02:21:50.414Z,25.66
2022-08-04T02:24:24.439Z,25.67
2022-08-04T02:26:56.638Z,25.64
2022-08-04T02:29:54.534Z,25.62
2022-08-04T02:32:29.842Z,25.55
2022-08-04T02:35:12.584Z,25.59
2022-08-04T02:37:47.001Z,25.58
2022-08-04T02:40:22.009Z,25.56
2022-08-04T02:42:50.978Z,25.56
2022-08-04T02:45:20.882Z,25.48
2022-08-04T02:48:28.683Z,25.56
2022-08-04T02:50:44.336Z,25.56
2022-08-04T02:53:15.509Z,25.53
2022-08-04T02:55:50.991Z,25.55
2022-08-04T02:58:22.439Z,25.51
2022-08-04T03:00:52.286Z,25.51
2022-08-04T03:03:45.017Z,25.48
2022-08-04T03:06:15.679Z,25.47
2022-08-04T03:09:11.662Z,25.43
2022-08-04T03:12:00.145Z,25.41
2022-08-04T03:15:23.321Z,25.39
2022-08-04T03:18:24.723Z,25.37
2022-08-04T03:21:36.473Z,25.35
2022-08-04T03:24:43.317Z,25.35
2022-08-04T03:27:37.581Z,25.35
2022-08-04T03:30:17.914Z,25.34
2022-08-04T03:32:54.110Z,25.33
2022-08-04T03:36:01.778Z,25.32
2022-08-04T03:39:12.282Z,25.31
2022-08-04T03:42:18.231Z,25.31
2022-08-04T03:45:48.438Z,25.31
2022-08-04T03:48:55.047Z,25.07
2022-08-04T03:51:56.139Z,25.28
2022-08-04T03:55:18.409Z,25.29
2022-08-04T03:58:20.120Z,25.29
2022-08-04T04:00:55.648Z,25.29
2022-08-04T04:03:35.567Z,25.31
2022-08-04T04:06:35.322Z,25.32
2022-08-04T04:09:52.350Z,25.35
2022-08-04T04:12:56.819Z,25.38
2022-08-04T04:15:49.905Z,25.58
2022-08-04T04:18:47.180Z,25.74
2022-08-04T04:21:58.041Z,26.07
2022-08-04T04:25:16.558Z,26.38
2022-08-04T04:27:49.724Z,26.69
2022-08-04T04:30:32.343Z,26.98
2022-08-04T04:33:31.028Z,27.26
2022-08-04T04:36:19.203Z,27.45
2022-08-04T04:39:12.592Z,27.55
2022-08-04T04:42:07.512Z,27.68
2022-08-04T04:45:02.333Z,27.85
2022-08-04T04:48:08.070Z,28.02
2022-08-04T04:51:11.792Z,28.15
2022-08-04T04:54:00.453Z,28.23
2022-08-04T04:56:56.340Z,28.34
2022-08-04T04:59:32.846Z,28.46
2022-08-04T05:02:25.023Z,28.56
2022-08-04T05:05:01.738Z,28.62
2022-08-04T05:08:44.188Z,28.67
2022-08-04T05:11:42.766Z,28.70
2022-08-04T05:14:46.311Z,28.73
2022-08-04T05:17:46.214Z,28.79
2022-08-04T05:20:25.810Z,28.82
2022-08-04T05:23:02.916Z,28.85
2022-08-04T05:25:40.991Z,28.87
2022-08-04T05:28:24.776Z,28.87
2022-08-04T05:31:01.769Z,28.81
2022-08-04T05:33:49.883Z,28.84
2022-08-04T05:36:40.181Z,28.85
2022-08-04T05:39:17.296Z,28.87
2022-08-04T05:41:55.084Z,28.88
2022-08-04T05:44:27.836Z,28.86
2022-08-04T05:46:59.101Z,28.83
2022-08-04T05:49:29.781Z,28.80
2022-08-04T05:52:01.998Z,28.73
2022-08-04T05:54:33.275Z,28.71
2022-08-04T05:57:05.157Z,28.67
2022-08-04T05:59:36.512Z,28.63
2022-08-04T06:02:07.140Z,28.58
2022-08-04T06:04:43.469Z,28.51
2022-08-04T06:07:11.368Z,28.52
2022-08-04T06:09:38.678Z,28.51
2022-08-04T06:12:15.532Z,28.57
2022-08-04T06:14:47.217Z,28.62
2022-08-04T06:19:57.379Z,28.67
2022-08-04T06:20:19.911Z,28.76
2022-08-04T06:22:57.575Z,28.84
2022-08-04T06:25:32.398Z,28.86
2022-08-04T06:28:01.890Z,28.96
2022-08-04T06:30:32.582Z,29.02
2022-08-04T06:33:04.987Z,29.07
2022-08-04T06:35:33.910Z,29.14
2022-08-04T06:38:03.276Z,29.14
2022-08-04T06:40:34.240Z,29.23
2022-08-04T06:43:07.696Z,29.29
2022-08-04T06:45:39.157Z,29.21
2022-08-04T06:48:08.857Z,29.43
2022-08-04T06:51:27.926Z,29.49
2022-08-04T06:53:27.059Z,29.62
2022-08-04T06:55:57.919Z,29.68
2022-08-04T06:58:26.713Z,29.80
2022-08-04T07:01:01.689Z,29.89
2022-08-04T07:03:30.940Z,30.00
2022-08-04T07:05:58.747Z,30.06
2022-08-04T07:08:34.870Z,30.17
2022-08-04T07:11:02.417Z,30.23
2022-08-04T07:13:32.710Z,30.33
2022-08-04T07:16:01.376Z,30.39
2022-08-04T07:18:31.847Z,30.40
2022-08-04T07:20:59.464Z,30.52
2022-08-04T07:23:27.601Z,30.56
2022-08-04T07:26:11.715Z,30.61
2022-08-04T07:28:41.876Z,30.75
2022-08-04T07:31:34.097Z,30.81
2022-08-04T07:34:17.192Z,30.90
2022-08-04T07:36:53.291Z,31.02
2022-08-04T07:39:29.720Z,31.11
2022-08-04T07:42:01.990Z,31.20
2022-08-04T07:44:34.738Z,31.29
2022-08-04T07:47:05.920Z,31.41
2022-08-04T07:49:55.933Z,31.50
2022-08-04T07:52:26.689Z,31.62
2022-08-04T07:54:54.873Z,31.69
2022-08-04T07:57:41.014Z,31.78
2022-08-04T08:00:11.870Z,31.82
2022-08-04T08:02:39.666Z,31.86
2022-08-04T08:05:10.623Z,31.94
2022-08-04T08:07:38.431Z,31.98
2022-08-04T08:10:18.740Z,32.08
2022-08-04T08:12:51.232Z,32.15
2022-08-04T08:15:20.273Z,32.25
2022-08-04T08:17:59.342Z,32.29
2022-08-04T08:20:32.294Z,32.32
2022-08-04T08:23:02.445Z,32.30
2022-08-04T08:25:33.796Z,32.18
2022-08-04T08:28:04.658Z,32.07
2022-08-04T08:30:33.985Z,31.94
2022-08-04T08:33:09.206Z,31.88
2022-08-04T08:35:57.054Z,31.91
2022-08-04T08:38:48.877Z,32.03
2022-08-04T08:41:43.757Z,32.14
2022-08-04T08:44:41.356Z,32.29
2022-08-04T08:47:14.274Z,32.41
2022-08-04T08:50:15.081Z,32.51
2022-08-04T08:53:33.468Z,32.62
2022-08-04T08:56:31.355Z,32.71
2022-08-04T08:59:25.339Z,32.83
2022-08-04T09:02:07.063Z,32.92
2022-08-04T09:05:21.731Z,33.02
2022-08-04T09:08:04.671Z,33.13
2022-08-04T09:10:46.562Z,33.22
2022-08-04T09:13:43.585Z,33.29
2022-08-04T09:16:40.673Z,33.33
2022-08-04T09:19:37.407Z,33.37
2022-08-04T09:22:33.781Z,33.44
2022-08-04T09:25:18.834Z,33.43
2022-08-04T09:28:50.898Z,33.43
2022-08-04T09:31:17.282Z,33.40
2022-08-04T09:34:04.618Z,33.42
2022-08-04T09:37:14.319Z,33.52
2022-08-04T09:40:31.412Z,33.57
2022-08-04T09:44:43.179Z,33.63
2022-08-04T09:46:39.238Z,33.68
2022-08-04T09:49:53.267Z,33.82
2022-08-04T09:52:52.381Z,33.83
2022-08-04T09:56:03.487Z,33.88
2022-08-04T09:58:58.585Z,33.90
2022-08-04T10:01:30.074Z,33.90
2022-08-04T10:04:02.699Z,33.96
2022-08-04T10:07:04.852Z,34.03
2022-08-04T10:09:52.594Z,34.08
2022-08-04T10:12:25.747Z,34.20
2022-08-04T10:15:12.277Z,34.24
2022-08-04T10:17:54.401Z,34.29
2022-08-04T10:20:55.502Z,34.38
2022-08-04T10:23:56.443Z,34.46
2022-08-04T10:26:35.098Z,34.49
2022-08-04T10:29:14.716Z,34.49
2022-08-04T10:32:02.440Z,34.45
2022-08-04T10:34:43.357Z,34.47
2022-08-04T10:38:00.034Z,34.54
2022-08-04T10:40:45.313Z,34.57
2022-08-04T10:43:30.905Z,34.47
2022-08-04T10:46:26.971Z,34.68
2022-08-04T10:49:09.299Z,34.71
2022-08-04T10:51:58.005Z,34.80
2022-08-04T10:55:03.857Z,34.89
2022-08-04T10:57:48.635Z,34.91
2022-08-04T11:00:24.175Z,34.98
2022-08-04T11:03:02.447Z,35.06
2022-08-04T11:05:47.273Z,35.12
2022-08-04T11:08:35.638Z,35.16
2022-08-04T11:11:29.623Z,35.21
2022-08-04T11:14:06.861Z,35.22
2022-08-04T11:17:22.769Z,35.22
2022-08-04T11:20:38.370Z,35.22
2022-08-04T11:23:17.675Z,35.18
2022-08-04T11:26:20.525Z,35.19
2022-08-04T11:29:37.408Z,35.23
2022-08-04T11:32:17.215Z,35.19
2022-08-04T11:34:52.875Z,35.20
2022-08-04T11:37:36.344Z,35.28
2022-08-04T11:40:33.286Z,35.41
2022-08-04T11:43:10.957Z,35.46
2022-08-04T11:45:57.087Z,35.52
2022-08-04T11:48:36.988Z,35.61
2022-08-04T11:51:06.815Z,35.66
2022-08-04T11:53:38.811Z,35.68
2022-08-04T11:56:13.499Z,35.63
2022-08-04T11:58:50.115Z,35.59
2022-08-04T12:02:00.224Z,35.64
2022-08-04T12:05:01.385Z,35.69
2022-08-04T12:08:23.852Z,35.76
2022-08-04T12:11:12.834Z,35.68
2022-08-04T12:13:50.815Z,35.56
2022-08-04T12:16:30.477Z,35.49
2022-08-04T12:19:24.099Z,35.36
2022-08-04T12:21:59.998Z,35.28
2022-08-04T12:24:54.420Z,35.32
2022-08-04T12:27:49.610Z,35.46
2022-08-04T12:31:02.045Z,35.55
2022-08-04T12:34:02.781Z,35.66
2022-08-04T12:37:02.804Z,35.84
2022-08-04T12:39:31.900Z,35.91
2022-08-04T12:42:21.517Z,35.93
2022-08-04T12:44:54.284Z,35.96
2022-08-04T12:47:30.103Z,35.94
2022-08-04T12:50:03.890Z,35.93
2022-08-04T12:55:33.388Z,35.93
2022-08-04T12:58:04.213Z,35.81
2022-08-04T13:00:41.207Z,36.15
2022-08-04T13:03:16.850Z,36.19
2022-08-04T13:05:46.762Z,36.24
2022-08-04T13:08:19.898Z,36.24
2022-08-04T13:10:50.627Z,36.26
2022-08-04T13:13:21.888Z,36.26
2022-08-04T13:16:08.943Z,36.25
2022-08-04T13:18:47.232Z,36.28
2022-08-04T13:21:22.807Z,36.33
2022-08-04T13:24:20.662Z,36.42
2022-08-04T13:27:08.944Z,36.46
2022-08-04T13:29:57.908Z,36.42
2022-08-04T13:32:29.927Z,36.45
2022-08-04T13:35:00.809Z,36.47
2022-08-04T13:37:35.997Z,36.47
2022-08-04T13:40:09.179Z,36.48
2022-08-04T13:42:39.008Z,36.51
2022-08-04T13:45:08.809Z,36.49
2022-08-04T13:47:40.127Z,36.46
2022-08-04T13:50:27.321Z,36.44
2022-08-04T13:52:58.106Z,36.47
2022-08-04T13:55:35.719Z,36.52
2022-08-04T13:58:19.806Z,36.57
2022-08-04T14:01:00.518Z,36.55
2022-08-04T14:03:53.574Z,36.48
2022-08-04T14:06:28.584Z,36.49
2022-08-04T14:08:57.581Z,36.51
2022-08-04T14:12:09.378Z,36.58
2022-08-04T14:14:32.608Z,36.55
2022-08-04T14:17:20.274Z,36.54
2022-08-04T14:19:55.940Z,36.47
2022-08-04T14:22:28.895Z,36.44
2022-08-04T14:25:18.447Z,36.41
2022-08-04T14:27:52.576Z,36.43
2022-08-04T14:30:32.847Z,36.46
2022-08-04T14:34:03.127Z,36.41
2022-08-04T14:36:04.246Z,36.33
2022-08-04T14:38:58.413Z,36.29
2022-08-04T14:41:43.705Z,36.29
2022-08-04T14:44:10.695Z,36.23
2022-08-04T14:46:52.536Z,36.07
2022-08-04T14:49:20.959Z,36.24
2022-08-04T14:52:01.704Z,36.27
2022-08-04T14:54:35.381Z,36.29
2022-08-04T14:57:07.057Z,36.27
2022-08-04T15:00:00.721Z,36.41
2022-08-04T15:02:30.558Z,36.44
2022-08-04T15:04:59.734Z,36.50
2022-08-04T15:07:47.027Z,36.51
2022-08-04T15:10:14.615Z,36.50
2022-08-04T15:12:41.952Z,36.42
2022-08-04T15:15:34.082Z,36.31
2022-08-04T15:17:56.657Z,36.26
2022-08-04T15:20:23.867Z,36.26
2022-08-04T15:22:51.004Z,36.20
2022-08-04T15:25:19.003Z,36.16
2022-08-04T15:27:51.259Z,36.25
2022-08-04T15:30:19.236Z,36.18
2022-08-04T15:32:54.564Z,36.26
2022-08-04T15:35:35.112Z,36.15
2022-08-04T15:38:36.744Z,36.18
2022-08-04T15:41:10.283Z,36.19
2022-08-04T15:43:47.220Z,36.17
2022-08-04T15:46:44.315Z,36.14
2022-08-04T15:49:24.416Z,36.14
2022-08-04T15:52:18.161Z,36.16
2022-08-04T15:54:52.384Z,36.19
2022-08-04T15:58:04.837Z,36.19
2022-08-04T16:00:50.170Z,36.18
2022-08-04T16:03:59.132Z,36.13
2022-08-04T16:06:22.548Z,36.08
2022-08-04T16:08:51.998Z,36.04
2022-08-04T16:11:31.160Z,35.95
2022-08-04T16:13:59.029Z,35.89
2022-08-04T16:16:50.107Z,35.80
2022-08-04T16:19:35.426Z,35.71
2022-08-04T16:22:04.733Z,35.60
2022-08-04T16:24:42.624Z,35.55
2022-08-04T16:27:12.907Z,35.49
2022-08-04T16:29:44.104Z,35.42
2022-08-04T16:32:17.654Z,35.37
2022-08-04T16:35:04.912Z,35.31
2022-08-04T16:37:38.258Z,35.21
2022-08-04T16:40:38.066Z,35.18
2022-08-04T16:43:09.520Z,34.86
2022-08-04T16:46:00.550Z,35.06
2022-08-04T16:48:35.909Z,35.01
2022-08-04T16:51:14.488Z,34.96
2022-08-04T16:53:53.859Z,34.94
2022-08-04T16:56:34.781Z,34.89
2022-08-04T16:59:11.653Z,34.59
2022-08-04T17:01:48.516Z,34.12
2022-08-04T17:04:16.919Z,33.74
2022-08-04T17:06:46.620Z,33.33
2022-08-04T17:09:19.601Z,32.98
2022-08-04T17:11:48.191Z,32.76
2022-08-04T17:14:26.594Z,32.46
2022-08-04T17:16:57.423Z,32.12
2022-08-04T17:19:26.425Z,31.97
2022-08-04T17:22:05.965Z,31.85
2022-08-04T17:24:40.704Z,31.80
2022-08-04T17:28:09.085Z,31.65
2022-08-04T17:29:55.755Z,31.58
2022-08-04T17:32:23.983Z,31.51
2022-08-04T17:34:59.281Z,31.40
2022-08-04T17:37:39.370Z,31.22
2022-08-04T17:40:18.059Z,31.21
2022-08-04T17:43:01.839Z,31.14
2022-08-04T17:48:24.914Z,31.15
2022-08-04T17:51:17.733Z,31.06
2022-08-04T17:56:52.353Z,30.82
2022-08-04T17:59:52.386Z,30.70
2022-08-04T18:02:13.313Z,30.53
2022-08-04T18:05:07.011Z,30.36
2022-08-04T18:08:39.005Z,30.03
2022-08-04T18:10:57.223Z,29.51
2022-08-04T18:13:28.339Z,29.18
2022-08-04T18:16:14.457Z,29.12
2022-08-04T18:19:13.527Z,29.03
2022-08-04T18:21:45.511Z,28.95
2022-08-04T18:24:56.264Z,28.82
2022-08-04T18:27:29.828Z,28.76
2022-08-04T18:30:33.454Z,28.70
2022-08-04T18:33:24.532Z,28.73
2022-08-04T18:36:34.922Z,28.69
2022-08-04T18:38:24.245Z,28.53
2022-08-04T18:40:54.779Z,28.43
2022-08-04T18:43:28.136Z,28.39
2022-08-04T18:45:59.464Z,28.36
2022-08-04T18:48:36.144Z,28.34
2022-08-04T18:51:23.088Z,28.29
2022-08-04T18:53:58.421Z,28.21
2022-08-04T18:56:31.825Z,28.15
2022-08-04T18:59:10.295Z,28.20
2022-08-04T19:02:12.193Z,28.14
2022-08-04T19:04:33.362Z,28.28
2022-08-04T19:07:24.561Z,28.25
2022-08-04T19:09:57.606Z,28.25
2022-08-04T19:12:28.500Z,28.19
2022-08-04T19:15:08.848Z,28.19
2022-08-04T19:17:55.201Z,28.16
2022-08-04T19:20:26.978Z,28.13
2022-08-04T19:24:28.361Z,28.09
2022-08-04T19:26:03.750Z,28.02
2022-08-04T19:31:28.185Z,27.89
2022-08-04T19:34:04.717Z,28.02
2022-08-04T19:36:33.125Z,28.05
2022-08-04T19:39:09.166Z,28.12
2022-08-04T19:44:29.469Z,28.09
2022-08-04T19:47:00.725Z,28.04
2022-08-04T19:50:04.722Z,28.03
2022-08-04T19:52:34.090Z,27.98
2022-08-04T19:55:09.694Z,28.07
2022-08-04T19:57:44.177Z,28.12
2022-08-04T20:00:16.203Z,28.15
2022-08-04T20:02:44.728Z,28.14
2022-08-04T20:05:13.233Z,28.23
2022-08-04T20:07:40.350Z,28.22
2022-08-04T20:10:08.800Z,28.29
2022-08-04T20:12:42.029Z,28.34
2022-08-04T20:15:12.483Z,28.34
2022-08-04T20:18:14.338Z,28.35
2022-08-04T20:20:29.873Z,28.31
2022-08-04T20:22:57.692Z,28.32
2022-08-04T20:25:37.005Z,28.27
2022-08-04T20:28:05.678Z,28.20
2022-08-04T20:30:35.950Z,28.14
2022-08-04T20:33:04.197Z,28.10
2022-08-04T20:36:00.836Z,28.05
2022-08-04T20:38:33.755Z,28.01
2022-08-04T20:41:02.170Z,27.93
2022-08-04T20:43:31.139Z,28.06
2022-08-04T20:45:59.304Z,27.94
2022-08-04T20:48:33.755Z,28.06
2022-08-04T20:51:01.022Z,28.03
2022-08-04T20:56:19.327Z,28.06
2022-08-04T20:58:57.438Z,28.05
2022-08-04T21:01:29.694Z,28.02
2022-08-04T21:04:27.097Z,27.97
2022-08-04T21:07:00.160Z,27.89
2022-08-04T21:09:38.352Z,27.84
2022-08-04T21:12:27.340Z,27.76
2022-08-04T21:15:01.451Z,27.70
2022-08-04T21:17:58.931Z,27.56
2022-08-04T21:20:28.599Z,27.48
2022-08-04T21:23:01.520Z,27.52
2022-08-04T21:25:29.872Z,27.47
2022-08-04T21:27:58.905Z,27.38
2022-08-04T21:30:32.873Z,27.38
2022-08-04T21:33:19.161Z,27.44
2022-08-04T21:35:47.197Z,27.36
2022-08-04T21:38:17.530Z,27.49
2022-08-04T21:40:56.342Z,27.42
2022-08-04T21:43:27.037Z,27.31
2022-08-04T21:46:03.842Z,27.21
2022-08-04T21:48:32.341Z,27.16
2022-08-04T21:52:00.775Z,27.01
2022-08-04T21:54:15.117Z,27.20
2022-08-04T21:56:50.855Z,27.09
2022-08-04T21:59:23.917Z,27.22
2022-08-04T22:01:57.901Z,27.33
2022-08-04T22:04:28.375Z,27.37
2022-08-04T22:06:55.449Z,27.26
2022-08-04T22:09:22.679Z,27.41
2022-08-04T22:11:51.766Z,27.41
2022-08-04T22:14:27.549Z,27.40
2022-08-04T22:16:57.698Z,27.28
2022-08-04T22:19:40.792Z,27.41
2022-08-04T22:22:13.672Z,27.37
2022-08-04T22:24:54.840Z,27.30
2022-08-04T22:27:40.182Z,27.43
2022-08-04T22:30:17.250Z,27.29
2022-08-04T22:32:50.719Z,27.41
2022-08-04T22:35:35.666Z,27.37
2022-08-04T22:38:24.478Z,27.31
2022-08-04T22:40:59.702Z,27.38
2022-08-04T22:43:33.395Z,27.37
2022-08-04T22:46:06.449Z,27.28
2022-08-04T22:48:36.753Z,27.35
2022-08-04T22:51:05.963Z,27.35
2022-08-04T22:53:35.669Z,27.34
2022-08-04T22:56:09.587Z,27.36
2022-08-04T22:58:45.588Z,27.27
2022-08-04T23:01:19.073Z,27.22
2022-08-04T23:03:55.051Z,27.28
2022-08-04T23:06:25.597Z,27.27
2022-08-04T23:08:57.380Z,27.37
2022-08-04T23:11:24.752Z,27.22
2022-08-04T23:14:02.901Z,27.23
2022-08-04T23:16:30.162Z,27.23
2022-08-04T23:18:57.204Z,27.24
2022-08-04T23:21:24.821Z,27.22
2022-08-04T23:24:00.747Z,27.04
2022-08-04T23:26:31.243Z,27.20
2022-08-04T23:28:58.552Z,27.13
2022-08-04T23:31:36.631Z,26.99
2022-08-04T23:34:09.426Z,27.03
2022-08-04T23:36:40.840Z,27.06
2022-08-04T23:39:09.862Z,26.98
2022-08-04T23:41:55.430Z,26.93
2022-08-04T23:44:26.897Z,26.92
2022-08-04T23:47:03.266Z,26.94
2022-08-04T23:49:43.995Z,26.86
2022-08-04T23:52:28.332Z,26.87
2022-08-04T23:55:01.158Z,26.84
2022-08-04T23:57:31.204Z,26.66
